sensor_id;sensor_type;location;lat;lon;timestamp;pressure;altitude;pressure_sealevel;temperature;humidity
2184;BME280;1098;48.940;8.962;2023-04-08T00:01:49;98790.41;;;9.61;100.00
2184;BME280;1098;48.940;8.962;2023-04-08T00:04:19;98789.16;;;9.64;100.00
2184;BME280;1098;48.940;8.962;2023-04-08T00:06:47;98787.03;;;9.79;100.00
2184;BME280;1098;48.940;8.962;2023-04-08T00:09:15;98784.72;;;9.32;100.00
2184;BME280;1098;48.940;8.962;2023-04-08T00:11:43;98787.94;;;9.60;100.00
2184;BME280;1098;48.940;8.962;2023-04-08T00:14:11;98788.41;;;9.37;100.00
2184;BME280;1098;48.940;8.962;2023-04-08T00:16:39;98788.00;;;9.47;100.00
2184;BME280;1098;48.940;8.962;2023-04-08T00:19:07;98793.19;;;9.42;100.00
2184;BME280;1098;48.940;8.962;2023-04-08T00:21:37;98793.53;;;9.65;100.00
2184;BME280;1098;48.940;8.962;2023-04-08T00:24:07;98786.75;;;9.43;100.00
2184;BME280;1098;48.940;8.962;2023-04-08T00:26:36;98792.41;;;9.35;100.00
2184;BME280;1098;48.940;8.962;2023-04-08T00:29:04;98794.97;;;9.68;100.00
2184;BME280;1098;48.940;8.962;2023-04-08T00:31:33;98784.59;;;9.64;100.00
2184;BME280;1098;48.940;8.962;2023-04-08T00:34:01;98790.88;;;9.52;100.00
2184;BME280;1098;48.940;8.962;2023-04-08T00:36:29;98793.72;;;9.70;100.00
2184;BME280;1098;48.940;8.962;2023-04-08T00:38:58;98795.25;;;9.40;100.00
2184;BME280;1098;48.940;8.962;2023-04-08T00:41:26;98791.03;;;9.70;100.00
2184;BME280;1098;48.940;8.962;2023-04-08T00:43:57;98790.38;;;9.75;100.00
2184;BME280;1098;48.940;8.962;2023-04-08T00:46:25;98791.75;;;9.90;100.00
2184;BME280;1098;48.940;8.962;2023-04-08T00:48:54;98800.78;;;9.64;100.00
2184;BME280;1098;48.940;8.962;2023-04-08T00:51:22;98799.75;;;9.65;100.00
2184;BME280;1098;48.940;8.962;2023-04-08T00:53:50;98804.13;;;9.60;100.00
2184;BME280;1098;48.940;8.962;2023-04-08T00:56:20;98805.69;;;9.81;100.00
2184;BME280;1098;48.940;8.962;2023-04-08T00:58:48;98804.75;;;9.62;100.00
2184;BME280;1098;48.940;8.962;2023-04-08T01:01:21;98808.66;;;9.66;100.00
2184;BME280;1098;48.940;8.962;2023-04-08T01:03:54;98806.44;;;9.50;100.00
2184;BME280;1098;48.940;8.962;2023-04-08T01:06:28;98806.94;;;9.20;100.00
2184;BME280;1098;48.940;8.962;2023-04-08T01:08:57;98808.53;;;9.41;100.00
2184;BME280;1098;48.940;8.962;2023-04-08T01:11:28;98803.75;;;9.50;100.00
2184;BME280;1098;48.940;8.962;2023-04-08T01:13:58;98806.28;;;9.32;100.00
2184;BME280;1098;48.940;8.962;2023-04-08T01:16:28;98804.44;;;9.32;100.00
2184;BME280;1098;48.940;8.962;2023-04-08T01:18:56;98795.25;;;9.53;100.00
2184;BME280;1098;48.940;8.962;2023-04-08T01:21:25;98793.44;;;9.34;100.00
2184;BME280;1098;48.940;8.962;2023-04-08T01:23:57;98801.06;;;9.43;100.00
2184;BME280;1098;48.940;8.962;2023-04-08T01:26:29;98803.63;;;9.12;100.00
2184;BME280;1098;48.940;8.962;2023-04-08T01:28:58;98803.81;;;9.23;100.00
2184;BME280;1098;48.940;8.962;2023-04-08T01:31:27;98808.19;;;8.98;100.00
2184;BME280;1098;48.940;8.962;2023-04-08T01:33:56;98806.97;;;8.74;100.00
2184;BME280;1098;48.940;8.962;2023-04-08T01:36:26;98810.28;;;8.96;100.00
2184;BME280;1098;48.940;8.962;2023-04-08T01:38:55;98804.47;;;8.99;100.00
2184;BME280;1098;48.940;8.962;2023-04-08T01:41:23;98803.44;;;8.87;100.00
2184;BME280;1098;48.940;8.962;2023-04-08T01:43:53;98810.09;;;8.91;100.00
2184;BME280;1098;48.940;8.962;2023-04-08T01:46:22;98805.31;;;8.80;100.00
2184;BME280;1098;48.940;8.962;2023-04-08T01:48:50;98812.16;;;8.82;100.00
2184;BME280;1098;48.940;8.962;2023-04-08T01:51:19;98800.34;;;8.77;100.00
2184;BME280;1098;48.940;8.962;2023-04-08T01:53:49;98808.00;;;8.93;100.00
2184;BME280;1098;48.940;8.962;2023-04-08T01:56:17;98803.66;;;8.92;100.00
2184;BME280;1098;48.940;8.962;2023-04-08T01:58:53;98800.94;;;8.99;100.00
2184;BME280;1098;48.940;8.962;2023-04-08T02:01:25;98801.16;;;8.84;100.00
2184;BME280;1098;48.940;8.962;2023-04-08T02:03:54;98803.63;;;9.12;100.00
2184;BME280;1098;48.940;8.962;2023-04-08T02:06:24;98800.97;;;8.92;100.00
2184;BME280;1098;48.940;8.962;2023-04-08T02:08:53;98805.53;;;8.91;100.00
2184;BME280;1098;48.940;8.962;2023-04-08T02:11:21;98802.19;;;9.09;100.00
2184;BME280;1098;48.940;8.962;2023-04-08T02:13:50;98800.31;;;8.96;100.00
2184;BME280;1098;48.940;8.962;2023-04-08T02:16:22;98802.41;;;8.48;100.00
2184;BME280;1098;48.940;8.962;2023-04-08T02:18:54;98804.69;;;8.65;100.00
2184;BME280;1098;48.940;8.962;2023-04-08T02:21:25;98805.72;;;8.83;100.00
2184;BME280;1098;48.940;8.962;2023-04-08T02:23:55;98804.50;;;8.73;100.00
2184;BME280;1098;48.940;8.962;2023-04-08T02:26:24;98799.72;;;8.75;100.00
2184;BME280;1098;48.940;8.962;2023-04-08T02:28:55;98795.34;;;9.13;100.00
2184;BME280;1098;48.940;8.962;2023-04-08T02:31:25;98803.22;;;8.95;100.00
2184;BME280;1098;48.940;8.962;2023-04-08T02:33:53;98794.31;;;9.14;100.00
2184;BME280;1098;48.940;8.962;2023-04-08T02:36:22;98796.59;;;8.78;100.00
2184;BME280;1098;48.940;8.962;2023-04-08T02:38:52;98798.28;;;8.85;100.00
2184;BME280;1098;48.940;8.962;2023-04-08T02:41:20;98797.81;;;8.95;100.00
2184;BME280;1098;48.940;8.962;2023-04-08T02:43:48;98812.97;;;8.83;100.00
2184;BME280;1098;48.940;8.962;2023-04-08T02:46:21;98799.69;;;9.01;100.00
2184;BME280;1098;48.940;8.962;2023-04-08T02:48:50;98807.38;;;8.78;100.00
2184;BME280;1098;48.940;8.962;2023-04-08T02:51:19;98807.78;;;8.75;100.00
2184;BME280;1098;48.940;8.962;2023-04-08T02:53:49;98802.41;;;9.08;100.00
2184;BME280;1098;48.940;8.962;2023-04-08T02:56:17;98802.59;;;9.06;100.00
2184;BME280;1098;48.940;8.962;2023-04-08T02:58:45;98806.50;;;9.23;100.00
2184;BME280;1098;48.940;8.962;2023-04-08T03:01:16;98804.00;;;9.28;100.00
2184;BME280;1098;48.940;8.962;2023-04-08T03:03:44;98806.13;;;9.00;100.00
2184;BME280;1098;48.940;8.962;2023-04-08T03:06:14;98800.72;;;9.00;100.00
2184;BME280;1098;48.940;8.962;2023-04-08T03:08:42;98801.38;;;8.49;100.00
2184;BME280;1098;48.940;8.962;2023-04-08T03:11:10;98805.72;;;8.77;100.00
2184;BME280;1098;48.940;8.962;2023-04-08T03:13:38;98808.44;;;8.70;100.00
2184;BME280;1098;48.940;8.962;2023-04-08T03:16:06;98808.59;;;8.95;100.00
2184;BME280;1098;48.940;8.962;2023-04-08T03:18:34;98810.06;;;8.78;100.00
2184;BME280;1098;48.940;8.962;2023-04-08T03:21:02;98811.13;;;8.83;100.00
2184;BME280;1098;48.940;8.962;2023-04-08T03:23:32;98811.53;;;8.60;100.00
2184;BME280;1098;48.940;8.962;2023-04-08T03:26:00;98816.31;;;8.65;100.00
2184;BME280;1098;48.940;8.962;2023-04-08T03:28:28;98810.28;;;8.70;100.00
2184;BME280;1098;48.940;8.962;2023-04-08T03:30:56;98811.97;;;8.71;100.00
2184;BME280;1098;48.940;8.962;2023-04-08T03:33:26;98805.28;;;9.00;100.00
2184;BME280;1098;48.940;8.962;2023-04-08T03:35:54;98810.69;;;8.80;100.00
2184;BME280;1098;48.940;8.962;2023-04-08T03:38:24;98811.13;;;8.90;100.00
2184;BME280;1098;48.940;8.962;2023-04-08T03:40:54;98804.91;;;8.89;100.00
2184;BME280;1098;48.940;8.962;2023-04-08T03:43:22;98807.53;;;9.22;100.00
2184;BME280;1098;48.940;8.962;2023-04-08T03:45:51;98808.81;;;9.13;100.00
2184;BME280;1098;48.940;8.962;2023-04-08T03:48:21;98812.56;;;8.86;100.00
2184;BME280;1098;48.940;8.962;2023-04-08T03:50:49;98811.50;;;9.00;100.00
2184;BME280;1098;48.940;8.962;2023-04-08T03:53:17;98815.22;;;9.25;100.00
2184;BME280;1098;48.940;8.962;2023-04-08T03:55:47;98814.22;;;9.00;100.00
2184;BME280;1098;48.940;8.962;2023-04-08T03:58:17;98808.16;;;9.31;100.00
2184;BME280;1098;48.940;8.962;2023-04-08T04:00:45;98815.84;;;9.21;100.00
2184;BME280;1098;48.940;8.962;2023-04-08T04:03:16;98804.50;;;8.92;100.00
2184;BME280;1098;48.940;8.962;2023-04-08T04:05:44;98808.63;;;8.82;100.00
2184;BME280;1098;48.940;8.962;2023-04-08T04:08:12;98812.34;;;8.94;100.00
2184;BME280;1098;48.940;8.962;2023-04-08T04:10:40;98817.75;;;8.68;100.00
2184;BME280;1098;48.940;8.962;2023-04-08T04:13:10;98811.53;;;8.93;100.00
2184;BME280;1098;48.940;8.962;2023-04-08T04:15:40;98808.19;;;9.05;100.00
2184;BME280;1098;48.940;8.962;2023-04-08T04:18:10;98806.34;;;9.05;100.00
2184;BME280;1098;48.940;8.962;2023-04-08T04:20:40;98814.22;;;8.80;100.00
2184;BME280;1098;48.940;8.962;2023-04-08T04:23:09;98815.88;;;8.94;100.00
2184;BME280;1098;48.940;8.962;2023-04-08T04:25:39;98808.00;;;8.67;100.00
2184;BME280;1098;48.940;8.962;2023-04-08T04:28:07;98815.88;;;8.75;100.00
2184;BME280;1098;48.940;8.962;2023-04-08T04:30:36;98817.94;;;9.06;100.00
2184;BME280;1098;48.940;8.962;2023-04-08T04:33:05;98824.75;;;9.21;100.00
2184;BME280;1098;48.940;8.962;2023-04-08T04:35:33;98823.97;;;8.61;100.00
2184;BME280;1098;48.940;8.962;2023-04-08T04:38:01;98826.06;;;8.73;100.00
2184;BME280;1098;48.940;8.962;2023-04-08T04:40:31;98832.84;;;8.55;100.00
2184;BME280;1098;48.940;8.962;2023-04-08T04:42:59;98832.69;;;8.70;100.00
2184;BME280;1098;48.940;8.962;2023-04-08T04:45:27;98820.84;;;9.11;100.00
2184;BME280;1098;48.940;8.962;2023-04-08T04:47:55;98824.38;;;8.78;100.00
2184;BME280;1098;48.940;8.962;2023-04-08T04:50:27;98826.03;;;8.79;100.00
2184;BME280;1098;48.940;8.962;2023-04-08T04:52:56;98829.53;;;8.73;100.00
2184;BME280;1098;48.940;8.962;2023-04-08T04:55:24;98834.53;;;8.63;100.00
2184;BME280;1098;48.940;8.962;2023-04-08T04:57:53;98845.75;;;8.86;100.00
2184;BME280;1098;48.940;8.962;2023-04-08T05:00:21;98845.94;;;8.98;100.00
2184;BME280;1098;48.940;8.962;2023-04-08T05:02:49;98839.28;;;8.61;100.00
2184;BME280;1098;48.940;8.962;2023-04-08T05:05:17;98843.03;;;8.80;100.00
2184;BME280;1098;48.940;8.962;2023-04-08T05:07:49;98847.81;;;8.91;100.00
2184;BME280;1098;48.940;8.962;2023-04-08T05:10:17;98848.44;;;8.86;100.00
2184;BME280;1098;48.940;8.962;2023-04-08T05:12:46;98848.00;;;9.03;100.00
2184;BME280;1098;48.940;8.962;2023-04-08T05:15:14;98850.72;;;9.09;100.00
2184;BME280;1098;48.940;8.962;2023-04-08T05:17:42;98848.84;;;9.03;100.00
2184;BME280;1098;48.940;8.962;2023-04-08T05:20:10;98850.91;;;8.75;100.00
2184;BME280;1098;48.940;8.962;2023-04-08T05:22:39;98856.47;;;8.60;100.00
2184;BME280;1098;48.940;8.962;2023-04-08T05:25:10;98863.34;;;8.82;100.00
2184;BME280;1098;48.940;8.962;2023-04-08T05:27:38;98865.22;;;8.82;100.00
2184;BME280;1098;48.940;8.962;2023-04-08T05:30:09;98861.69;;;9.01;100.00
2184;BME280;1098;48.940;8.962;2023-04-08T05:32:38;98860.44;;;8.97;100.00
2184;BME280;1098;48.940;8.962;2023-04-08T05:35:06;98859.59;;;8.57;100.00
2184;BME280;1098;48.940;8.962;2023-04-08T05:37:35;98866.25;;;9.01;100.00
2184;BME280;1098;48.940;8.962;2023-04-08T05:40:05;98866.44;;;8.79;100.00
2184;BME280;1098;48.940;8.962;2023-04-08T05:42:35;98867.91;;;9.28;100.00
2184;BME280;1098;48.940;8.962;2023-04-08T05:45:03;98867.28;;;9.19;100.00
2184;BME280;1098;48.940;8.962;2023-04-08T05:47:32;98864.34;;;9.47;100.00
2184;BME280;1098;48.940;8.962;2023-04-08T05:50:00;98864.53;;;9.46;100.00
2184;BME280;1098;48.940;8.962;2023-04-08T05:52:28;98859.56;;;9.43;100.00
2184;BME280;1098;48.940;8.962;2023-04-08T05:54:58;98871.63;;;9.20;100.00
2184;BME280;1098;48.940;8.962;2023-04-08T05:57:26;98873.09;;;9.29;100.00
2184;BME280;1098;48.940;8.962;2023-04-08T05:59:55;98874.50;;;9.52;100.00
2184;BME280;1098;48.940;8.962;2023-04-08T06:02:23;98878.28;;;9.11;100.00
2184;BME280;1098;48.940;8.962;2023-04-08T06:04:52;98885.94;;;9.21;100.00
2184;BME280;1098;48.940;8.962;2023-04-08T06:07:20;98887.41;;;9.10;100.00
2184;BME280;1098;48.940;8.962;2023-04-08T06:09:48;98891.13;;;8.89;100.00
2184;BME280;1098;48.940;8.962;2023-04-08T06:12:16;98894.66;;;9.29;100.00
2184;BME280;1098;48.940;8.962;2023-04-08T06:14:44;98900.47;;;8.87;100.00
2184;BME280;1098;48.940;8.962;2023-04-08T06:17:13;98894.44;;;9.24;100.00
2184;BME280;1098;48.940;8.962;2023-04-08T06:19:41;98882.78;;;8.51;100.00
2184;BME280;1098;48.940;8.962;2023-04-08T06:22:09;98871.34;;;8.36;100.00
2184;BME280;1098;48.940;8.962;2023-04-08T06:24:37;98910.84;;;9.10;100.00
2184;BME280;1098;48.940;8.962;2023-04-08T06:27:05;98913.94;;;9.00;100.00
2184;BME280;1098;48.940;8.962;2023-04-08T06:29:33;98912.69;;;9.22;100.00
2184;BME280;1098;48.940;8.962;2023-04-08T06:32:01;98910.44;;;9.13;100.00
2184;BME280;1098;48.940;8.962;2023-04-08T06:34:31;98907.25;;;9.62;100.00
2184;BME280;1098;48.940;8.962;2023-04-08T06:36:59;98904.97;;;9.72;100.00
2184;BME280;1098;48.940;8.962;2023-04-08T06:39:27;98910.59;;;9.38;100.00
2184;BME280;1098;48.940;8.962;2023-04-08T06:41:57;98908.56;;;9.26;100.00
2184;BME280;1098;48.940;8.962;2023-04-08T06:44:44;98908.31;;;9.48;100.00
2184;BME280;1098;48.940;8.962;2023-04-08T06:47:12;98908.97;;;9.30;100.00
2184;BME280;1098;48.940;8.962;2023-04-08T06:49:42;98912.47;;;9.44;100.00
2184;BME280;1098;48.940;8.962;2023-04-08T06:52:12;98913.09;;;9.52;100.00
2184;BME280;1098;48.940;8.962;2023-04-08T06:54:41;98909.41;;;10.11;100.00
2184;BME280;1098;48.940;8.962;2023-04-08T06:57:09;98917.53;;;9.98;100.00
2184;BME280;1098;48.940;8.962;2023-04-08T06:59:37;98924.19;;;10.02;100.00
2184;BME280;1098;48.940;8.962;2023-04-08T07:02:05;98919.47;;;9.84;100.00
2184;BME280;1098;48.940;8.962;2023-04-08T07:04:33;98915.69;;;10.56;100.00
2184;BME280;1098;48.940;8.962;2023-04-08T07:07:03;98918.38;;;9.98;100.00
2184;BME280;1098;48.940;8.962;2023-04-08T07:09:31;98923.81;;;9.79;100.00
2184;BME280;1098;48.940;8.962;2023-04-08T07:11:59;98899.88;;;10.02;100.00
2184;BME280;1098;48.940;8.962;2023-04-08T07:14:27;98926.25;;;10.96;100.00
2184;BME280;1098;48.940;8.962;2023-04-08T07:16:55;98925.09;;;10.41;100.00
2184;BME280;1098;48.940;8.962;2023-04-08T07:19:23;98925.25;;;10.84;100.00
2184;BME280;1098;48.940;8.962;2023-04-08T07:21:51;98931.59;;;10.26;100.00
2184;BME280;1098;48.940;8.962;2023-04-08T07:24:21;98926.53;;;10.81;100.00
2184;BME280;1098;48.940;8.962;2023-04-08T07:26:49;98925.59;;;11.00;100.00
2184;BME280;1098;48.940;8.962;2023-04-08T07:29:19;98914.72;;;10.76;100.00
2184;BME280;1098;48.940;8.962;2023-04-08T07:31:47;98925.59;;;11.00;100.00
2184;BME280;1098;48.940;8.962;2023-04-08T07:34:15;98931.16;;;11.06;100.00
2184;BME280;1098;48.940;8.962;2023-04-08T07:36:43;98940.13;;;10.30;100.00
2184;BME280;1098;48.940;8.962;2023-04-08T07:39:13;98944.41;;;9.67;100.00
2184;BME280;1098;48.940;8.962;2023-04-08T07:41:43;98939.41;;;10.86;100.00
2184;BME280;1098;48.940;8.962;2023-04-08T07:44:11;98935.59;;;11.00;100.00
2184;BME280;1098;48.940;8.962;2023-04-08T07:46:42;98936.59;;;10.67;100.00
2184;BME280;1098;48.940;8.962;2023-04-08T07:49:15;98942.94;;;10.86;100.00
2184;BME280;1098;48.940;8.962;2023-04-08T07:51:43;98934.38;;;10.89;100.00
2184;BME280;1098;48.940;8.962;2023-04-08T07:54:11;98944.75;;;10.99;100.00
2184;BME280;1098;48.940;8.962;2023-04-08T07:56:44;98946.03;;;11.21;100.00
2184;BME280;1098;48.940;8.962;2023-04-08T07:59:12;98944.16;;;10.90;100.00
2184;BME280;1098;48.940;8.962;2023-04-08T08:01:41;98948.97;;;11.20;100.00
2184;BME280;1098;48.940;8.962;2023-04-08T08:04:09;98955.78;;;11.22;100.00
2184;BME280;1098;48.940;8.962;2023-04-08T08:06:37;98955.34;;;11.25;100.00
2184;BME280;1098;48.940;8.962;2023-04-08T08:09:05;98952.41;;;11.27;100.00
2184;BME280;1098;48.940;8.962;2023-04-08T08:11:33;98957.50;;;11.91;100.00
2184;BME280;1098;48.940;8.962;2023-04-08T08:14:03;98966.84;;;11.95;100.00
2184;BME280;1098;48.940;8.962;2023-04-08T08:16:31;98965.09;;;11.58;100.00
2184;BME280;1098;48.940;8.962;2023-04-08T08:18:59;98967.28;;;11.67;100.00
2184;BME280;1098;48.940;8.962;2023-04-08T08:21:27;98961.78;;;11.56;100.00
2184;BME280;1098;48.940;8.962;2023-04-08T08:23:58;98965.50;;;12.04;100.00
2184;BME280;1098;48.940;8.962;2023-04-08T08:26:26;98969.09;;;11.98;100.00
2184;BME280;1098;48.940;8.962;2023-04-08T08:28:56;98969.16;;;11.67;100.00
2184;BME280;1098;48.940;8.962;2023-04-08T08:31:26;98975.81;;;12.14;100.00
2184;BME280;1098;48.940;8.962;2023-04-08T08:33:54;98973.47;;;12.36;100.00
2184;BME280;1098;48.940;8.962;2023-04-08T08:36:22;98973.28;;;11.45;100.00
2184;BME280;1098;48.940;8.962;2023-04-08T08:38:50;98967.75;;;11.40;100.00
2184;BME280;1098;48.940;8.962;2023-04-08T08:44:13;98971.53;;;12.43;100.00
2184;BME280;1098;48.940;8.962;2023-04-08T08:46:43;98976.84;;;11.70;100.00
2184;BME280;1098;48.940;8.962;2023-04-08T08:49:12;98973.91;;;12.15;100.00
2184;BME280;1098;48.940;8.962;2023-04-08T08:51:40;98975.72;;;11.84;100.00
2184;BME280;1098;48.940;8.962;2023-04-08T08:54:11;98981.81;;;11.73;100.00
2184;BME280;1098;48.940;8.962;2023-04-08T08:56:39;98991.22;;;11.95;100.00
2184;BME280;1098;48.940;8.962;2023-04-08T08:59:08;98990.66;;;11.87;100.00
2184;BME280;1098;48.940;8.962;2023-04-08T09:01:37;98988.00;;;12.60;100.00
2184;BME280;1098;48.940;8.962;2023-04-08T09:04:09;98990.38;;;11.95;100.00
2184;BME280;1098;48.940;8.962;2023-04-08T09:06:38;98992.06;;;12.51;100.00
2184;BME280;1098;48.940;8.962;2023-04-08T09:09:09;98994.88;;;11.26;100.00
2184;BME280;1098;48.940;8.962;2023-04-08T09:11:38;98993.34;;;12.66;100.00
2184;BME280;1098;48.940;8.962;2023-04-08T09:14:19;98993.69;;;12.70;100.00
2184;BME280;1098;48.940;8.962;2023-04-08T09:16:50;98991.03;;;12.82;100.00
2184;BME280;1098;48.940;8.962;2023-04-08T09:19:20;98988.97;;;13.67;100.00
2184;BME280;1098;48.940;8.962;2023-04-08T09:22:03;98988.81;;;12.90;100.00
2184;BME280;1098;48.940;8.962;2023-04-08T09:24:31;98985.34;;;13.31;100.00
2184;BME280;1098;48.940;8.962;2023-04-08T09:26:59;98990.28;;;12.74;100.00
2184;BME280;1098;48.940;8.962;2023-04-08T09:29:27;99000.69;;;12.78;100.00
2184;BME280;1098;48.940;8.962;2023-04-08T09:32:00;98991.72;;;13.25;100.00
2184;BME280;1098;48.940;8.962;2023-04-08T09:34:30;98987.91;;;13.80;100.00
2184;BME280;1098;48.940;8.962;2023-04-08T09:37:00;98991.22;;;12.98;100.00
2184;BME280;1098;48.940;8.962;2023-04-08T09:39:28;98990.47;;;12.91;100.00
2184;BME280;1098;48.940;8.962;2023-04-08T09:41:57;98995.75;;;13.04;100.00
2184;BME280;1098;48.940;8.962;2023-04-08T09:44:28;98994.06;;;13.22;100.00
2184;BME280;1098;48.940;8.962;2023-04-08T09:47:00;98998.34;;;13.29;100.00
2184;BME280;1098;48.940;8.962;2023-04-08T09:49:31;98988.31;;;13.41;100.00
2184;BME280;1098;48.940;8.962;2023-04-08T09:52:05;98989.78;;;13.79;100.00
2184;BME280;1098;48.940;8.962;2023-04-08T09:54:37;98990.44;;;13.51;100.00
2184;BME280;1098;48.940;8.962;2023-04-08T09:57:09;98989.41;;;13.64;100.00
2184;BME280;1098;48.940;8.962;2023-04-08T09:59:37;98995.16;;;12.18;100.00
2184;BME280;1098;48.940;8.962;2023-04-08T10:02:08;99002.72;;;12.09;100.00
2184;BME280;1098;48.940;8.962;2023-04-08T10:04:40;99000.56;;;12.36;100.00
2184;BME280;1098;48.940;8.962;2023-04-08T10:07:11;98997.50;;;11.89;100.00
2184;BME280;1098;48.940;8.962;2023-04-08T10:09:41;98999.09;;;12.88;100.00
2184;BME280;1098;48.940;8.962;2023-04-08T10:12:09;98999.81;;;12.29;100.00
2184;BME280;1098;48.940;8.962;2023-04-08T10:14:37;98994.03;;;12.44;100.00
2184;BME280;1098;48.940;8.962;2023-04-08T10:17:24;98989.56;;;12.49;100.00
2184;BME280;1098;48.940;8.962;2023-04-08T10:19:54;99003.13;;;12.13;100.00
2184;BME280;1098;48.940;8.962;2023-04-08T10:25:26;99000.31;;;11.83;100.00
2184;BME280;1098;48.940;8.962;2023-04-08T10:27:55;98999.44;;;12.44;100.00
2184;BME280;1098;48.940;8.962;2023-04-08T10:30:41;98998.69;;;12.36;100.00
2184;BME280;1098;48.940;8.962;2023-04-08T10:33:10;99005.50;;;11.53;100.00
2184;BME280;1098;48.940;8.962;2023-04-08T10:35:41;99003.47;;;11.98;100.00
2184;BME280;1098;48.940;8.962;2023-04-08T10:38:12;99003.28;;;12.18;100.00
2184;BME280;1098;48.940;8.962;2023-04-08T10:40:40;99013.88;;;11.76;100.00
2184;BME280;1098;48.940;8.962;2023-04-08T10:43:09;99004.13;;;11.93;100.00
2184;BME280;1098;48.940;8.962;2023-04-08T10:45:38;99001.38;;;12.55;100.00
2184;BME280;1098;48.940;8.962;2023-04-08T10:48:13;98999.25;;;11.84;100.00
2184;BME280;1098;48.940;8.962;2023-04-08T10:50:43;98997.25;;;12.16;100.00
2184;BME280;1098;48.940;8.962;2023-04-08T10:53:11;98995.34;;;12.71;100.00
2184;BME280;1098;48.940;8.962;2023-04-08T10:55:39;98999.50;;;12.37;100.00
2184;BME280;1098;48.940;8.962;2023-04-08T10:58:09;99001.59;;;11.98;100.00
2184;BME280;1098;48.940;8.962;2023-04-08T11:00:40;99000.16;;;11.71;100.00
2184;BME280;1098;48.940;8.962;2023-04-08T11:03:10;98987.47;;;12.99;100.00
2184;BME280;1098;48.940;8.962;2023-04-08T11:05:41;98991.75;;;13.07;100.00
2184;BME280;1098;48.940;8.962;2023-04-08T11:08:11;98993.47;;;13.31;100.00
2184;BME280;1098;48.940;8.962;2023-04-08T11:10:39;98994.03;;;13.63;100.00
2184;BME280;1098;48.940;8.962;2023-04-08T11:13:07;98992.78;;;13.24;100.00
2184;BME280;1098;48.940;8.962;2023-04-08T11:15:35;98993.78;;;12.93;100.00
2184;BME280;1098;48.940;8.962;2023-04-08T11:18:04;98993.97;;;13.10;100.00
2184;BME280;1098;48.940;8.962;2023-04-08T11:20:32;98993.69;;;13.18;100.00
2184;BME280;1098;48.940;8.962;2023-04-08T11:23:02;98997.66;;;12.86;100.00
2184;BME280;1098;48.940;8.962;2023-04-08T11:25:32;98999.25;;;13.23;100.00
2184;BME280;1098;48.940;8.962;2023-04-08T11:28:00;98985.84;;;13.40;100.00
2184;BME280;1098;48.940;8.962;2023-04-08T11:30:29;98995.44;;;13.77;100.00
2184;BME280;1098;48.940;8.962;2023-04-08T11:32:58;98995.03;;;13.27;100.00
2184;BME280;1098;48.940;8.962;2023-04-08T11:35:27;98996.19;;;13.31;100.00
2184;BME280;1098;48.940;8.962;2023-04-08T11:37:55;98993.16;;;12.07;100.00
2184;BME280;1098;48.940;8.962;2023-04-08T11:40:26;98984.44;;;12.59;100.00
2184;BME280;1098;48.940;8.962;2023-04-08T11:42:55;98993.00;;;11.83;100.00
2184;BME280;1098;48.940;8.962;2023-04-08T11:45:23;98988.66;;;12.00;100.00
2184;BME280;1098;48.940;8.962;2023-04-08T11:47:51;98993.59;;;11.85;100.00
2184;BME280;1098;48.940;8.962;2023-04-08T11:50:23;98983.25;;;12.00;100.00
2184;BME280;1098;48.940;8.962;2023-04-08T11:52:51;98984.56;;;11.91;100.00
2184;BME280;1098;48.940;8.962;2023-04-08T11:55:21;98981.44;;;12.13;100.00
2184;BME280;1098;48.940;8.962;2023-04-08T11:57:50;98988.47;;;11.77;100.00
2184;BME280;1098;48.940;8.962;2023-04-08T12:00:20;98983.38;;;12.05;100.00
2184;BME280;1098;48.940;8.962;2023-04-08T12:02:48;98987.56;;;12.45;100.00
2184;BME280;1098;48.940;8.962;2023-04-08T12:05:18;98989.56;;;11.94;100.00
2184;BME280;1098;48.940;8.962;2023-04-08T12:07:46;98992.72;;;12.10;100.00
2184;BME280;1098;48.940;8.962;2023-04-08T12:10:14;98998.34;;;12.08;100.00
2184;BME280;1098;48.940;8.962;2023-04-08T12:12:43;98999.94;;;11.73;100.00
2184;BME280;1098;48.940;8.962;2023-04-08T12:15:11;98999.94;;;11.73;100.00
2184;BME280;1098;48.940;8.962;2023-04-08T12:17:40;98990.88;;;11.60;100.00
2184;BME280;1098;48.940;8.962;2023-04-08T12:20:09;98991.59;;;11.74;100.00
2184;BME280;1098;48.940;8.962;2023-04-08T12:22:37;99001.97;;;11.52;100.00
2184;BME280;1098;48.940;8.962;2023-04-08T12:25:06;99003.66;;;11.78;100.00
2184;BME280;1098;48.940;8.962;2023-04-08T12:27:34;99001.75;;;12.03;100.00
2184;BME280;1098;48.940;8.962;2023-04-08T12:30:05;98999.50;;;11.76;100.00
2184;BME280;1098;48.940;8.962;2023-04-08T12:32:33;99002.81;;;12.02;100.00
2184;BME280;1098;48.940;8.962;2023-04-08T12:35:02;99002.47;;;11.92;100.00
2184;BME280;1098;48.940;8.962;2023-04-08T12:37:31;99004.84;;;11.57;100.00
2184;BME280;1098;48.940;8.962;2023-04-08T12:39:59;99011.91;;;11.33;100.00
2184;BME280;1098;48.940;8.962;2023-04-08T12:42:27;99011.66;;;11.42;100.00
2184;BME280;1098;48.940;8.962;2023-04-08T12:44:55;99008.88;;;11.73;100.00
2184;BME280;1098;48.940;8.962;2023-04-08T12:47:24;99017.19;;;12.03;100.00
2184;BME280;1098;48.940;8.962;2023-04-08T12:49:52;99009.47;;;11.82;100.00
2184;BME280;1098;48.940;8.962;2023-04-08T12:52:22;99005.69;;;11.58;100.00
2184;BME280;1098;48.940;8.962;2023-04-08T12:54:50;99002.06;;;12.50;100.00
2184;BME280;1098;48.940;8.962;2023-04-08T12:57:18;99001.13;;;11.83;100.00
2184;BME280;1098;48.940;8.962;2023-04-08T12:59:46;99001.50;;;11.62;100.00
2184;BME280;1098;48.940;8.962;2023-04-08T13:02:14;98999.31;;;11.77;100.00
2184;BME280;1098;48.940;8.962;2023-04-08T13:04:42;98994.69;;;12.21;100.00
2184;BME280;1098;48.940;8.962;2023-04-08T13:07:10;98987.41;;;12.21;100.00
2184;BME280;1098;48.940;8.962;2023-04-08T13:09:42;98996.78;;;12.00;100.00
2184;BME280;1098;48.940;8.962;2023-04-08T13:12:11;98990.91;;;13.06;100.00
2184;BME280;1098;48.940;8.962;2023-04-08T13:14:40;98997.41;;;12.39;100.00
2184;BME280;1098;48.940;8.962;2023-04-08T13:17:08;98987.16;;;12.89;100.00
2184;BME280;1098;48.940;8.962;2023-04-08T13:19:36;98996.88;;;12.49;100.00
2184;BME280;1098;48.940;8.962;2023-04-08T13:22:04;98996.63;;;12.68;100.00
2184;BME280;1098;48.940;8.962;2023-04-08T13:24:32;98993.31;;;11.93;100.00
2184;BME280;1098;48.940;8.962;2023-04-08T13:27:02;98998.56;;;11.88;100.00
2184;BME280;1098;48.940;8.962;2023-04-08T13:29:30;98994.69;;;12.02;100.00
2184;BME280;1098;48.940;8.962;2023-04-08T13:32:00;98991.22;;;12.32;100.00
2184;BME280;1098;48.940;8.962;2023-04-08T13:34:28;98990.03;;;12.28;100.00